Create Custom Reports and Graphics: Custom Report

North/Central Map

Map

15 Minute Data

South County Map

Map

15 Minute Data

Northern Sonoma County Latest

13 Stations

15 Minute Data | America/Los_Angeles
as of 10/21/19 9:33 PM PDT
Station Date Time Temp (°F) RH (%) Dew Pt (°F) Wind Spd (mph) Wind Dir (°) Wind Gust (mph) Latest Rain (In) Daily Rain (In) Daily Min Temp (°F) Daily Max Temp (°F)
Cooley-Rockpile 10/21/19 2100 63.2   7.4 52   15 45.6   0.3 11.9 NNW | 338 18.2   5.3 0.00 0.00 52.6   5.6 83.5   13.6
Cooley Lower Remote 10/21/19 2100 67.2   7.6 46   14 46.0   0.0 3.2 NW | 306 6.0   1.2 0.00 0.00 54.0   5.2 86.6   13.7
Rancho Alexander-Cloverdale 10/21/19 2130 60.7   3.8 60   9 46.9   0.0 0.7 WSW | 258 2.7   1.1 0.00 0.00 54.7   6.1 88.1   9.6
Ranch 38 (Cloverdale-SE) 10/21/19 2130 68.7   7.7 47   11 47.7   1.5 5.1 N | 354 10.3   1.8 0.00 0.00 55.8   6.1 86.9   9.8
Hoffman - Geyserville 10/21/19 2130 67.4   8.3 50   13 48.2   1.6 3.5 NW | 316 8.0   3.5 0.00 0.00 56.1   7.8 89.0   10.3
Geyserville Ranch 3 10/21/19 2130 69.1   7.6 47   11 48.1   1.4 5.6 WNW | 296 10.4   5.6 0.00 0.00 56.4   7.1 88.4   10.7
Ranch 40 (Geyserville-NE) 10/21/19 2130 68.8   7.1 46   11 47.3   1.1 6.9 NW | 324 11.2   3.3 0.00 0.00 54.7   6.5 90.5   10.8
Geyserville - S (Nervo Station) 10/21/19 2130 72.5   9.4 41   12 47.3   1.5 5.8 NW | 310 13.1   6.4 0.00 0.00 55.1   4.7 91.8   12.2
River Oaks (Lytton) 10/21/19 2130 67.0   4.0 51   4 48.1   1.5 3.0 WNW | 286 6.4   3.8 0.00 0.00 45.5   3.3 92.0   12.5
Piccolo - Alexander Valley 10/21/19 2130 66.8   5.0 42   12 43.0   2.2 2.5 NW | 314 9.9   3.7 0.00 0.00 44.0   2.2 89.3   11.0
Red Fan 10/21/19 2130 54.1   1.5 69   3 44.3   2.6 1.2 NE | 49 2.6   0.9 0.00 0.00 43.7   4.2 91.1   11.6
Landslide 10/21/19 2130 54.0   1.1 68   4 43.8   2.6 0.9 SW | 234 3.0   1.1 0.00 0.00 44.0   3.1 91.3   11.0
Dry Creek Valley 10/21/19 2130 63.2   1.0 58   1 48.4   1.5 5.1 NNW | 334 7.2   0.4 0.00 0.00 54.1   6.2 91.5   11.6
Max     72.5 69 48.4 11.9 - 18.2 0.00 0.00 56.4 92.0
Avg     64.8 52 46.5 4.3 - 8.4 0.00 - - -
Min     54.0 41 43.0 0.7 - 2.6 0.00 0.00 43.7 83.5

Central Sonoma County Latest

22 Stations

15 Minute Data | America/Los_Angeles
as of 10/21/19 9:33 PM PDT
Station Date Time Temp (°F) RH (%) Dew Pt (°F) Wind Spd (mph) Wind Dir (°) Wind Gust (mph) Latest Rain (In) Daily Rain (In) Daily Min Temp (°F) Daily Max Temp (°F)
Healdsburg - S (Sodini) 10/21/19 2130 72.6   16.8 41   25 47.4   2.7 4.7 NNW | 345 9.1   9.1 0.00 0.00 49.3   3.8 91.5   11.2
Ranch 8 (Windsor-NW) 10/21/19 2130 70.4   10.2 48   21 49.6   0.4 2.4 NNW | 341 6.8   4.2 0.00 0.00 50.4   0.6 94.0   11.6
Foothill Ranch 16 10/21/19 2130 73.4   20.5 40   36 47.5   2.2 6.2 NNE | 21 10.2   8.5 0.00 0.00 59.6   7.6 91.6   10.1
Airport Ranch 14 10/21/19 2130 67.3   7.0 49   15 47.3   0.4 1.6 ENE | 70 3.8   1.1 0.00 0.00 48.3   4.4 89.9   10.0
Silk Road 10/21/19 2130 69.1   15.8 47   33 48.2   0.6 2.6 NNW | 342 6.0   3.0 0.00 0.00 40.8   4.0 91.0   10.3
Oak Meadows Ranch 5 10/21/19 2130 73.2   17.4 41   35 48.0   0.5 4.3 NNW | 330 7.7   5.0 0.00 0.00 42.6   3.9 88.6   9.8
Laughlin Rd (Windsor-South) 10/21/19 2130 67.2   10.1 50   23 48.1   0.6 - - - 0.00 0.00 46.1   2.3 89.2   9.8
Barnes Rd (SE Fulton) 10/21/19 2130 62.7   6.6 58   16 47.8   0.3 1.1 NNW | 348 5.1   3.3 0.00 0.00 44.8   4.2 90.0   9.3
Crinella Ranch 21 10/17/19 1415 71.0   0.9 34   3 41.3   2.8 6.1 NW | 314 12.1   2.3 0.00 0.00 46.8   10.4 72.8   0.1
Denner Ranch Base 10/21/19 2130 61.8   6.9 60   18 47.8   0.2 2.2 W | 270 3.7   1.5 0.00 0.00 43.4   3.6 91.2   8.7
Guerneville Road (Santa Rosa Plains) 10/21/19 2130 53.9   2.8 77   5 46.9   1.1 0.6 W | 280 2.5   1.6 0.00 0.00 40.6   3.4 88.7   8.9
Rich Ranch (Guerneville Rd) 10/21/19 2130 60.2   4.7 69   15 50.1   0.8 - - - - - 44.3   3.6 89.6   9.3
Occidental Rd (Sebastopol) 10/21/19 2130 53.9   1.7 72   4 45.0   0.2 1.8 WNW | 286 3.1   2.0 0.00 0.00 41.7   3.5 89.7   8.4
Garrison Ranch 12 10/21/19 2130 53.5   1.7 78   9 47.0   1.1 0.2 W | 266 1.3   0.1 0.00 0.00 42.7   2.9 91.6   9.3
Laughlin Rd (Guerneville) 10/21/19 2130 50.1   1.1 77   5 43.2   2.9 0.0 E | 95 0.5   0.8 0.00 0.00 39.5   3.2 91.3   9.6
Korbel Winery 10/21/19 2130 53.5   0.7 91   3 51.0   0.2 0.0 N | 0 0.0   0.0 0.00 0.00 43.4   1.4 89.8   7.4
Shone Farms (Forestville) 10/21/19 2130 60.9   2.8 62   9 47.8   0.8 1.0 WNW | 299 2.6   0.3 0.00 0.00 46.5   3.5 89.8   8.5
Ranch 30 (Forestville-NE) 10/21/19 2130 56.9   2.2 76   6 49.5   0.1 1.1 N | 5 2.0   0.2 0.00 0.00 43.3   1.3 92.5   12.2
Dutton Ranch (Graton-West) 10/21/19 2130 52.1   0.3 83   6 47.2   1.8 0.0 SW | 225 0.9   0.7 0.00 0.00 40.9   4.2 91.0   9.9
Mill Station Rd (Graton-South) 10/21/19 2130 53.1   0.6 84   0 48.5   0.6 0.0 N | 0 0.0   0.6 0.00 0.00 39.8   3.8 88.2   10.3
Burnside Road (Sebastopol Hills) 10/21/19 2130 71.0   11.8 43   27 47.2   2.0 3.3 NNE | 12 5.8   4.7 0.00 0.00 51.2   5.4 87.2   11.5
Hirsch Vineyards 10/21/19 2130 67.0   8.7 48   18 46.9   0.3 3.3 NNE | 18 5.7   1.4 0.00 0.00 55.9   6.5 82.5   14.0
Max     73.4 91 51.0 6.2 - 10.2 0.00 0.00 59.6 94.0
Avg     62.1 62 47.7 1.9 - 4.0 0.00 - - -
Min     50.1 40 43.2 0.0 - 0.0 0.00 0.00 39.5 82.5

Southern Sonoma County Latest

14 Stations

15 Minute Data | America/Los_Angeles
as of 10/21/19 9:33 PM PDT
Station Date Time Temp (°F) RH (%) Dew Pt (°F) Wind Spd (mph) Wind Dir (°) Wind Gust (mph) Latest Rain (In) Daily Rain (In) Daily Min Temp (°F) Daily Max Temp (°F)
Lower Bennett Valley 10/21/19 2130 47.7   0.6 77   4 40.7   1.8 0.1 S | 179 1.3   0.4 0.00 0.00 39.7   3.2 89.3   10.1
Kunde - Kenwood 10/21/19 2100 57.2   7.4 51   22 39.1   2.3 0.5 N | 350 5.5   5.5 0.00 0.00 39.0   5.1 89.5   11.6
Sonoma Valley (Bedrock) 10/21/19 2130 65.6   6.3 32   24 34.7   8.6 3.9 NNW | 344 8.8   3.0 0.00 0.00 43.0   0.1 89.5   9.9
Arnold (Sonoma) 10/21/19 2130 61.4   5.5 44   21 39.0   5.2 1.2 SSW | 198 3.6   1.8 0.00 0.00 43.2   2.8 91.2   11.2
Schellville 10/21/19 2130 61.9   2.8 55   14 45.8   3.3 0.1 ESE | 103 2.1   1.0 0.00 0.00 42.4   2.0 93.0   9.4
Napoli (Sonoma-SE) 10/21/19 2130 58.7   4.4 43   29 36.2   9.3 0.6 SSE | 160 2.7   0.7 0.00 0.01 41.3   1.6 93.7   10.6
Diamond R71 (Carneros) 10/21/19 2130 73.5   12.7 26   34 36.9   10.0 1.2 WSW | 237 3.3   1.7 0.00 0.00 53.5   4.1 90.1   11.7
Huichica Upper 10/21/19 2130 76.5   14.8 21   35 33.5   12.5 2.3 WSW | 258 5.0   0.7 - - 53.5   3.9 89.6   8.6
Huichica-Lower 10/21/19 2130 57.9   4.2 50   22 39.5   5.5 0.8 N | 8 3.4   1.3 0.00 0.00 43.5   1.9 90.6   9.4
Stony Point (West Rohnert Park) 10/21/19 2130 52.0   2.7 75   11 44.4   1.1 1.2 NW | 315 2.0   0.7 0.00 0.00 40.7   4.6 89.3   11.9
Asellus (Penngrove) 10/21/19 2130 60.9   10.2 53   28 43.6   1.5 4.6 NW | 321 5.4   3.6 0.00 0.00 43.1   0.5 90.8   13.3
Rodger's Creek 10/21/19 2130 69.1   11.4 43   29 45.7   3.2 1.8 NW | 304 3.7   3.2 0.00 0.00 53.9   6.0 90.0   14.5
Frates R10 (East Petaluma) 10/21/19 2130 54.4   0.2 67   9 43.5   3.2 0.8 ENE | 68 3.8   0.4 0.00 0.00 42.9   1.9 94.3   14.0
Sleepy Hollow-Lakeville 10/21/19 2130 58.7   0.8 58   10 44.0   4.9 2.0 NNW | 341 4.1   6.2 0.00 0.00 43.2   4.3 89.4   11.7
Max     76.5 77 45.8 4.6 - 8.8 0.00 0.01 53.9 94.3
Avg     61.1 50 40.5 1.5 - 3.9 0.00 - - -
Min     47.7 21 33.5 0.1 - 1.3 0.00 0.00 39.0 89.3